Terminal Aerodrome Forecast
Issued by NWS

Home | Current Version | Previous Version | Text Only | Print | Product List | Glossary On
Versions: 1 2 3 4 5 6 7 8 9 10 11 12 13 14 15 16 17 18 19 20
000
FTUS45 KREV 272300
TAFRNO
TAF
KRNO 272320Z 2800/2824 27014G24KT P6SM VCSH BKN050 BKN080
     FM280300 31010KT 6SM -SHRASN BKN028 OVC040
     FM280900 02006KT 2SM -SN SCT010 OVC020
     FM281500 VRB04KT 6SM -SHSN SCT015 OVC030
     FM281800 VRB04KT 2SM -SN SCT010 OVC020=

USA.gov is the U.S. government's official web portal to all federal, state and local government web resources and services.